Terminal Aerodrome Forecast
Issued by NWS Cleveland, OH

Home | Current Version | Previous Version | Text Only | Print | Product List | Glossary Off
Versions: 1 2 3 4 5 6 7 8 9 10 11 12 13 14

000
FTUS41 KCLE 152325
TAFCAK
TAF
KCAK 152325Z 1600/1624 28014G27KT P6SM SCT020 BKN050
     FM160200 30013G22KT P6SM SCT017 BKN030
     FM160600 32009KT P6SM SCT017 BKN030
     FM160900 32008KT P6SM SCT017 BKN035
     FM161700 32010KT P6SM FEW022 SCT045
     FM162300 32005KT P6SM FEW045 FEW250=

USA.gov is the U.S. government's official web portal to all federal, state and local government web resources and services.